Latest Weather Observations for Redcliffe

IDQ60801

Issued at 1:35 pm EST Wednesday 1 October 2014 (issued every 30 minutes, with the page automatically refreshed every 10 minutes)

About weather observations | Map of weather stations | Latest weather observations for QLD | Other Formats
Station Details ID: 040958 Name: REDCLIFFE Lat: -27.22 Lon: 153.09 Height: 12.6 m
Data from the previous 72 hours. | See also: Recent months at Redcliffe
Date/Time
EST
Temp
°C
App
Temp
°C
Dew
Point
Rel
Hum
%
Delta-T
°C
Wind Press
QNH
hPa
Press
MSL
hPa
Rain
since 9 am
mm
Dir
 
Spd
km/h
Gust
km/h
Spd
kts
Gust
kts
01/01:30pm 26.2 21.8 15.6 52 6.5 NE 33 39 18 21 1012.8 1012.7 0.0
01/01:00pm 25.6 21.1 15.3 53 6.2 NE 33 39 18 21 1013.5 1013.4 0.0
01/12:30pm 25.8 21.1 14.9 51 6.5 NE 33 37 18 20 1014.1 1014.0 0.0
01/12:00pm 26.8 23.0 15.8 51 6.7 NE 30 33 16 18 1014.6 1014.5 0.0
01/11:30am 26.3 23.5 14.4 48 7.1 NE 22 28 12 15 1015.3 1015.2 0.0
01/11:00am 25.8 23.1 13.0 45 7.4 NE 19 24 10 13 1015.8 1015.7 0.0
01/10:30am 25.2 22.3 14.0 49 6.6 NNE 22 24 12 13 1016.6 1016.5 0.0
01/10:00am 23.2 20.2 13.7 55 5.5 NNE 22 26 12 14 1017.1 1017.0 0.0
01/09:30am 22.8 20.2 13.3 55 5.5 NNE 19 20 10 11 1017.6 1017.5 0.0
01/09:00am 22.5 21.1 13.3 56 5.3 N 13 17 7 9 1018.0 1017.9 0.0
01/08:30am 21.6 20.2 13.5 60 4.7 NW 13 17 7 9 1018.0 1017.9 0.0
01/08:00am 21.2 18.4 14.4 65 4.0 N 22 26 12 14 1017.6 1017.5 0.0
01/07:30am 19.6 17.4 13.3 67 3.6 N 17 22 9 12 1017.6 1017.5 0.0
01/07:00am 19.3 16.5 13.2 68 3.5 N 20 26 11 14 1017.6 1017.5 0.0
01/06:30am 18.7 16.1 13.3 71 3.1 N 19 26 10 14 1017.2 1017.1 0.0
01/06:00am 18.4 15.7 13.5 73 2.8 N 20 28 11 15 1017.0 1016.9 0.0
01/05:30am 18.2 15.6 13.3 73 2.8 N 19 22 10 12 1016.8 1016.7 0.0
01/05:00am 18.4 15.8 13.7 74 2.7 N 20 28 11 15 1016.6 1016.5 0.0
01/04:30am 18.6 16.2 13.7 73 2.8 N 19 28 10 15 1016.4 1016.3 0.0
01/04:00am 18.7 16.7 14.0 74 2.7 N 17 24 9 13 1016.2 1016.1 0.0
01/03:30am 18.2 16.1 13.5 74 2.7 N 17 26 9 14 1016.2 1016.1 0.0
01/03:00am 18.6 16.5 13.7 73 2.8 N 17 24 9 13 1016.4 1016.3 0.0
01/02:30am 18.7 16.2 13.6 72 2.9 N 19 26 10 14 1016.6 1016.5 0.0
01/02:00am 19.0 16.9 13.6 71 3.1 N 17 24 9 13 1016.7 1016.6 0.0
01/01:30am 19.0 17.0 13.8 72 3.0 N 17 24 9 13 1017.0 1016.9 0.0
01/01:00am 19.3 16.8 14.1 72 3.0 N 20 28 11 15 1017.3 1017.2 0.0
01/12:30am 19.5 17.1 13.9 70 3.2 N 19 24 10 13 1017.6 1017.5 0.0
01/12:00am 19.7 16.6 14.5 72 3.0 N 24 32 13 17 1017.7 1017.6 0.0
 
Date/Time
EST
Temp
°C
App
Temp
°C
Dew
Point
Rel
Hum
%
Delta-T
°C
Wind Press
QNH
hPa
Press
MSL
hPa
Rain
since 9 am
mm
Dir
 
Spd
km/h
Gust
km/h
Spd
kts
Gust
kts
30/11:30pm 19.8 16.0 14.8 73 2.9 N 28 35 15 19 1017.9 1017.8 0.0
30/11:00pm 20.0 16.0 15.2 74 2.8 N 30 39 16 21 1017.9 1017.8 0.0
30/10:30pm 20.1 16.4 15.1 73 2.9 N 28 37 15 20 1018.1 1018.0 0.0
30/10:00pm 20.3 17.2 15.5 74 2.8 N 26 33 14 18 1018.2 1018.1 0.0
30/09:30pm 20.5 17.8 15.7 74 2.9 N 24 33 13 18 1018.3 1018.2 0.0
30/09:00pm 20.6 18.3 15.6 73 3.0 N 22 30 12 16 1018.4 1018.3 0.0
30/08:30pm 20.7 18.0 15.5 72 3.1 N 24 32 13 17 1018.4 1018.3 0.0
30/08:00pm 20.8 17.7 15.6 72 3.1 N 26 32 14 17 1018.3 1018.2 0.0
30/07:30pm 20.8 18.1 15.6 72 3.1 N 24 30 13 16 1018.1 1018.0 0.0
30/07:00pm 21.0 17.1 15.5 71 3.3 N 30 35 16 19 1018.0 1017.9 0.0
30/06:30pm 21.2 16.9 15.3 69 3.5 N 32 35 17 19 1017.8 1017.7 0.0
30/06:00pm 21.3 16.4 15.2 68 3.6 N 35 41 19 22 1017.4 1017.3 0.0
30/05:30pm 21.6 17.0 15.0 66 3.9 N 33 37 18 20 1017.5 1017.4 0.0
30/05:00pm 22.0 17.6 15.1 65 4.1 N 32 37 17 20 1017.2 1017.1 0.0
30/04:30pm 22.5 17.8 14.4 60 4.8 NNE 32 37 17 20 1017.0 1016.9 0.0
30/04:00pm 22.9 18.2 14.2 58 5.1 NNE 32 37 17 20 1016.9 1016.8 0.0
30/03:30pm 23.2 18.4 14.7 58 5.0 NNE 33 37 18 20 1016.9 1016.8 0.0
30/03:00pm 23.9 19.2 14.9 57 5.4 NNE 33 39 18 21 1016.9 1016.8 0.0
30/02:30pm 24.2 19.1 14.9 56 5.6 NNE 35 41 19 22 1017.0 1016.9 0.0
30/02:00pm 23.7 18.1 14.4 56 5.5 NNE 37 43 20 23 1017.4 1017.3 0.0
30/01:30pm 24.6 19.7 15.2 55 5.6 NE 35 39 19 21 1017.8 1017.7 0.0
30/01:00pm 24.4 19.4 13.9 52 6.2 NE 33 39 18 21 1018.1 1018.0 0.0
30/12:30pm 24.0 19.4 14.7 56 5.5 NE 32 37 17 20 1018.5 1018.4 0.0
30/12:00pm 24.5 20.8 15.1 55 5.6 NE 28 33 15 18 1019.1 1019.0 0.0
30/11:30am 24.5 19.8 12.1 46 7.1 NE 28 32 15 17 1019.5 1019.4 0.0
30/11:00am 23.7 20.3 10.4 43 7.3 NE 19 28 10 15 1019.9 1019.8 0.0
30/10:30am 23.8 21.4 11.5 46 6.9 NNE 15 22 8 12 1020.2 1020.2 0.0
30/10:00am 23.1 21.6 11.8 49 6.3 NNE 11 15 6 8 1020.8 1020.8 0.0
30/09:30am 21.7 19.3 11.4 52 5.7 NNE 15 17 8 9 1021.1 1021.1 0.0
30/09:00am 20.7 18.7 12.7 60 4.5 NNE 15 15 8 8 1021.3 1021.3 0.0
30/08:30am 19.9 17.9 12.7 63 4.1 NNE 15 17 8 9 1021.3 1021.3 0.0
30/08:00am 18.7 17.6 12.0 65 3.7 N 9 11 5 6 1021.3 1021.3 0.0
30/07:30am 18.0 17.4 12.2 69 3.2 NNW 7 9 4 5 1021.1 1021.1 0.0
30/07:00am 16.8 16.2 11.7 72 2.8 WNW 6 7 3 4 1021.0 1021.0 0.0
30/06:30am 15.6 14.8 11.6 77 2.2 WNW 7 9 4 5 1020.6 1020.6 0.0
30/06:00am 14.1 12.8 11.3 83 1.5 WNW 9 11 5 6 1020.4 1020.4 0.0
30/05:30am 14.7 13.5 11.7 82 1.6 NW 9 11 5 6 1020.0 1019.9 0.0
30/05:00am 14.6 13.5 11.9 84 1.5 NW 9 13 5 7 1019.7 1019.6 0.0
30/04:30am 15.0 14.1 12.5 85 1.4 NW 9 11 5 6 1019.5 1019.4 0.0
30/04:00am 15.0 13.8 11.6 80 1.8 NW 9 11 5 6 1019.2 1019.1 0.0
30/03:30am 15.1 14.0 11.9 81 1.7 NW 9 11 5 6 1019.0 1018.9 0.0
30/03:00am 15.0 13.9 11.8 81 1.7 NW 9 11 5 6 1019.0 1018.9 0.0
30/02:30am 15.3 14.1 11.7 79 1.9 NW 9 11 5 6 1019.2 1019.1 0.0
30/02:00am 15.5 14.3 11.7 78 2.0 WNW 9 11 5 6 1019.3 1019.2 0.0
30/01:30am 16.9 15.9 12.4 75 2.5 NNW 9 11 5 6 1019.3 1019.2 0.0
30/01:00am 17.9 16.7 12.8 72 2.8 N 11 13 6 7 1019.2 1019.1 0.0
30/12:30am 17.5 16.5 13.4 77 2.3 N 11 15 6 8 1019.4 1019.3 0.0
30/12:00am 17.7 16.2 13.2 75 2.5 N 13 15 7 8 1019.5 1019.4 0.0
 
Date/Time
EST
Temp
°C
App
Temp
°C
Dew
Point
Rel
Hum
%
Delta-T
°C
Wind Press
QNH
hPa
Press
MSL
hPa
Rain
since 9 am
mm
Dir
 
Spd
km/h
Gust
km/h
Spd
kts
Gust
kts
29/11:30pm 17.8 16.3 13.1 74 2.6 N 13 15 7 8 1019.8 1019.7 0.0
29/11:00pm 18.3 16.1 13.2 72 2.9 N 17 24 9 13 1019.8 1019.7 0.0
29/10:30pm 18.6 17.1 13.0 70 3.2 NNW 13 19 7 10 1019.9 1019.8 0.0
29/10:00pm 18.4 17.0 13.3 72 2.9 NNW 13 19 7 10 1019.8 1019.7 0.0
29/09:30pm 18.8 17.0 13.2 70 3.2 NNW 15 20 8 11 1019.8 1019.7 0.0
29/09:00pm 19.3 17.6 13.5 69 3.3 N 15 20 8 11 1020.0 1019.9 0.0
29/08:30pm 19.7 17.6 13.6 68 3.5 N 17 20 9 11 1020.0 1019.9 0.0
29/08:00pm 20.0 17.3 13.5 66 3.7 N 20 28 11 15 1019.9 1019.8 0.0
29/07:30pm 20.0 16.4 13.0 64 4.0 N 24 30 13 16 1019.5 1019.4 0.0
29/07:00pm 20.1 16.8 12.8 63 4.1 NNE 22 26 12 14 1019.3 1019.2 0.0
29/06:30pm 20.3 15.8 12.5 61 4.4 NNE 28 32 15 17 1018.9 1018.8 0.0
29/06:00pm 20.5 16.0 12.5 60 4.5 N 28 32 15 17 1018.7 1018.6 0.0
29/05:30pm 20.7 16.0 12.1 58 4.8 NNE 28 33 15 18 1018.3 1018.2 0.0
29/05:00pm 21.0 15.5 11.9 56 5.1 NNE 32 35 17 19 1018.1 1018.0 0.0
29/04:30pm 21.5 16.7 12.9 58 4.9 NNE 30 33 16 18 1017.9 1017.8 0.0
29/04:00pm 21.6 16.7 12.5 56 5.1 NE 30 33 16 18 1017.7 1017.6 0.0
29/03:30pm 22.3 17.5 12.8 55 5.4 NE 30 33 16 18 1017.6 1017.5 0.0
29/03:00pm 21.7 16.7 12.3 55 5.3 NE 30 33 16 18 1017.5 1017.4 0.0
29/02:30pm 22.3 17.4 12.5 53 5.6 NE 30 33 16 18 1017.6 1017.5 0.0
29/02:00pm 21.9 16.9 12.2 54 5.5 NE 30 33 16 18 1017.8 1017.7 0.0
29/01:30pm 22.2 17.7 12.5 54 5.5 NE 28 30 15 16 1018.1 1018.0 0.0
29/01:00pm 23.1 19.3 13.6 55 5.5 NE 26 28 14 15 1018.5 1018.4 0.0
29/12:30pm 22.9 19.5 12.5 52 5.9 NE 22 26 12 14 1018.9 1018.8 0.0
29/12:00pm 21.6 18.4 11.9 54 5.4 NE 20 26 11 14 1019.3 1019.2 0.0
29/11:30am 21.8 18.8 12.1 54 5.5 NE 19 22 10 12 1019.8 1019.7 0.0
29/11:00am 22.0 19.9 12.5 54 5.4 ENE 15 17 8 9 1020.4 1020.4 0.0
29/10:30am 22.2 20.7 13.0 56 5.3 ENE 13 15 7 8 1020.8 1020.8 0.0
29/10:00am 21.8 20.3 11.8 53 5.6 ENE 11 13 6 7 1021.2 1021.2 0.0
29/09:30am 21.1 19.8 11.2 53 5.5 NE 9 11 5 6 1021.5 1021.5 0.0
29/09:00am 20.8 19.5 11.2 54 5.3 SE 9 11 5 6 1021.7 1021.7 0.2
29/08:30am 20.7 19.5 11.6 56 5.0 SSE 9 11 5 6 1021.7 1021.7 0.2
29/08:00am 19.1 18.0 11.9 63 4.0 SSE 9 9 5 5 1021.6 1021.6 0.2
29/07:30am 17.9 17.2 11.9 68 3.3 SW 7 9 4 5 1021.6 1021.6 0.2
29/07:00am 16.1 14.5 11.7 75 2.4 SW 11 13 6 7 1021.6 1021.6 0.2
29/06:30am 15.5 14.3 11.7 78 2.1 SW 9 13 5 7 1021.4 1021.4 0.2
29/06:00am 15.1 13.5 11.7 80 1.8 WSW 11 13 6 7 1021.0 1021.0 0.2
29/05:30am 14.9 13.1 12.0 83 1.6 SW 13 15 7 8 1020.5 1020.5 0.2
29/05:00am 14.8 12.9 11.9 83 1.6 WSW 13 15 7 8 1020.1 1020.1 0.2
29/04:30am 14.8 12.9 11.9 83 1.6 WSW 13 15 7 8 1019.9 1019.8 0.2
29/04:00am 14.5 12.6 11.8 84 1.4 WSW 13 15 7 8 1019.5 1019.4 0.2
29/03:30am 14.5 13.4 11.8 84 1.5 WSW 9 13 5 7 1019.4 1019.3 0.2
29/03:00am 14.6 13.1 11.9 84 1.5 WSW 11 15 6 8 1019.6 1019.5 0.2
29/02:30am 14.6 13.2 12.3 86 1.3 W 11 13 6 7 1019.9 1019.8 0.2
29/02:00am 14.7 13.7 12.2 85 1.4 W 9 11 5 6 1020.3 1020.3 0.2
29/01:30am 15.1 14.5 12.4 84 1.5 WSW 7 11 4 6 1020.5 1020.5 0.2
29/01:00am 15.4 14.0 12.2 81 1.7 E 11 13 6 7 1020.9 1020.9 0.2
29/12:30am 16.4 14.7 11.1 71 2.8 ENE 11 13 6 7 1021.1 1021.1 0.2
29/12:00am 17.7 15.5 10.8 64 3.7 E 13 15 7 8 1021.4 1021.4 0.2
 
Date/Time
EST
Temp
°C
App
Temp
°C
Dew
Point
Rel
Hum
%
Delta-T
°C
Wind Press
QNH
hPa
Press
MSL
hPa
Rain
since 9 am
mm
Dir
 
Spd
km/h
Gust
km/h
Spd
kts
Gust
kts
28/11:30pm 18.8 16.3 11.1 61 4.2 E 15 17 8 9 1021.6 1021.6 0.2
28/11:00pm 18.9 16.4 11.0 60 4.3 E 15 17 8 9 1021.5 1021.5 0.2
28/10:30pm 19.0 15.8 11.3 61 4.2 E 19 26 10 14 1021.4 1021.4 0.2
28/10:00pm 19.2 16.2 10.7 58 4.6 E 17 20 9 11 1021.4 1021.4 0.2
28/09:30pm 18.9 16.0 11.0 60 4.3 E 17 19 9 10 1021.4 1021.4 0.2
28/09:00pm 19.3 16.3 10.6 57 4.7 ESE 17 20 9 11 1021.4 1021.4 0.2
28/08:30pm 19.5 16.2 10.8 57 4.7 ESE 19 22 10 12 1021.3 1021.3 0.2
28/08:00pm 19.4 15.9 10.9 58 4.6 ESE 20 26 11 14 1021.0 1021.0 0.2
28/07:30pm 19.5 16.1 11.3 59 4.5 ESE 20 26 11 14 1020.8 1020.8 0.2
28/07:00pm 19.7 16.4 11.7 60 4.4 ESE 20 26 11 14 1020.3 1020.3 0.2
28/06:30pm 19.7 16.6 11.7 60 4.4 E 19 24 10 13 1020.0 1019.9 0.2
28/06:00pm 19.8 17.2 12.1 61 4.3 E 17 22 9 12 1020.0 1019.9 0.2
28/05:30pm 20.0 17.6 12.5 62 4.2 E 17 20 9 11 1019.9 1019.8 0.2
28/05:00pm 20.4 17.8 11.9 58 4.7 E 17 19 9 10 1019.8 1019.7 0.2
28/04:30pm 20.5 17.4 11.7 57 4.9 E 19 22 10 12 1019.7 1019.6 0.2
28/04:00pm 20.9 18.1 11.5 55 5.2 E 17 20 9 11 1019.6 1019.5 0.2
28/03:30pm 21.3 18.2 11.6 54 5.4 E 19 22 10 12 1019.5 1019.4 0.2
28/03:00pm 21.3 18.1 11.9 55 5.2 E 20 24 11 13 1019.3 1019.2 0.2
28/02:30pm 21.3 19.0 13.0 59 4.7 E 17 20 9 11 1019.5 1019.4 0.2
28/02:00pm 21.0 18.6 12.7 59 4.7 E 17 20 9 11 1019.8 1019.7 0.2

Other Formats:

Comma delimited format used in spreadsheet applications
http://www.bom.gov.au/fwo/IDQ60801/IDQ60801.95591.axf

JavaScript Object Notation format (JSON) in row-major order
http://www.bom.gov.au/fwo/IDQ60801/IDQ60801.95591.json